Time;durP1;ratioP1;P1;durP2;ratioP2;P2;SDS_P1;SDS_P2;PMS_P1;PMS_P2;Temp;Humidity;BMP_temperature;BMP_pressure;BME280_temperature;BME280_humidity;BME280_pressure;Samples;Min_cycle;Max_cycle;Signal;HPM_P1;HPM_P2
2023/04/20 00:00:26;;;;;;;;;;;5.30;1.00;;;;;;5079000;28;19917;-78
2023/04/20 00:03:02;;;;;;;;;;;5.40;1.00;;;;;;5067625;28;19909;-78
2023/04/20 00:06:02;;;;;;;;;;;5.40;1.00;;;;;;5090676;28;19908;-78
2023/04/20 00:08:32;;;;;;;;;;;5.40;1.00;;;;;;5094839;28;19915;-78
2023/04/20 00:10:57;;;;;;;;;;;5.40;1.00;;;;;;5083025;28;19912;-78
2023/04/20 00:13:25;;;;;;;;;;;5.40;1.00;;;;;;5070208;28;20360;-78
2023/04/20 00:15:51;;;;;;;;;;;5.40;1.00;;;;;;5073110;28;19916;-78
2023/04/20 00:18:26;;;;;;;;;;;5.40;1.00;;;;;;5074173;28;19909;-78
2023/04/20 00:20:51;;;;;;;;;;;5.50;1.00;;;;;;5061835;28;19952;-78
2023/04/20 00:23:37;;;;;;;;;;;5.40;1.00;;;;;;5054129;28;19909;-78
2023/04/20 00:26:03;;;;;;;;;;;5.40;1.00;;;;;;5090074;28;19924;-78
2023/04/20 00:28:31;;;;;;;;;;;5.50;1.00;;;;;;5074347;28;19912;-78
2023/04/20 00:30:57;;;;;;;;;;;5.40;1.00;;;;;;5070928;28;19912;-78
2023/04/20 00:33:44;;;;;;;;;;;5.40;1.00;;;;;;5074039;28;19916;-78
2023/04/20 00:36:26;;;;;;;;;;;5.30;1.00;;;;;;5086578;28;20275;-78
2023/04/20 00:39:03;;;;;;;;;;;5.30;1.00;;;;;;5076090;28;19915;-78
2023/04/20 00:41:29;;;;;;;;;;;5.20;1.00;;;;;;5053904;28;19955;-74
2023/04/20 00:43:55;;;;;;;;;;;5.20;1.00;;;;;;5054135;28;19908;-75
2023/04/20 00:46:20;;;;;;;;;;;5.10;1.00;;;;;;5072144;28;20288;-74
2023/04/20 00:48:47;;;;;;;;;;;5.10;1.00;;;;;;5054311;28;19920;-75
2023/04/20 00:51:13;;;;;;;;;;;5.10;1.00;;;;;;5054151;28;19916;-75
2023/04/20 00:53:44;;;;;;;;;;;5.00;1.00;;;;;;5071374;28;19916;-75
2023/04/20 00:56:31;;;;;;;;;;;5.00;1.00;;;;;;5058249;28;19955;-75
2023/04/20 00:59:02;;;;;;;;;;;4.90;1.00;;;;;;5058093;28;20007;-74
2023/04/20 01:01:38;;;;;;;;;;;4.90;1.00;;;;;;5067573;28;20033;-75
2023/04/20 01:04:03;;;;;;;;;;;4.90;1.00;;;;;;5076926;28;19966;-75
2023/04/20 01:06:29;;;;;;;;;;;4.90;1.00;;;;;;5096584;28;19916;-75
2023/04/20 01:09:02;;;;;;;;;;;4.80;1.00;;;;;;5086849;28;19912;-75
2023/04/20 01:11:27;;;;;;;;;;;4.80;1.00;;;;;;5061277;28;19932;-74
2023/04/20 01:13:55;;;;;;;;;;;4.80;1.00;;;;;;5098138;28;19908;-74
2023/04/20 01:16:22;;;;;;;;;;;4.70;1.00;;;;;;5075805;28;19912;-74
2023/04/20 01:18:48;;;;;;;;;;;4.70;1.00;;;;;;5057489;28;20383;-75
2023/04/20 01:21:32;;;;;;;;;;;4.70;1.00;;;;;;5073751;28;20384;-75
2023/04/20 01:24:02;;;;;;;;;;;4.60;1.00;;;;;;5077553;28;19909;-74
2023/04/20 01:26:32;;;;;;;;;;;4.60;1.00;;;;;;5078056;28;19913;-74
2023/04/20 01:28:57;;;;;;;;;;;4.60;1.00;;;;;;5077014;28;19947;-75
2023/04/20 01:31:31;;;;;;;;;;;4.60;1.00;;;;;;5073879;28;19913;-75
2023/04/20 01:33:57;;;;;;;;;;;4.60;1.00;;;;;;5082772;28;19939;-75
2023/04/20 01:36:23;;;;;;;;;;;4.60;1.00;;;;;;5064013;28;19917;-75
2023/04/20 01:38:50;;;;;;;;;;;4.60;1.00;;;;;;5072119;28;19999;-75
2023/04/20 01:41:20;;;;;;;;;;;4.60;1.00;;;;;;5093276;28;20046;-75
2023/04/20 01:43:45;;;;;;;;;;;4.50;1.00;;;;;;5075494;28;20414;-75
2023/04/20 01:46:14;;;;;;;;;;;4.60;1.00;;;;;;5078436;28;19999;-75
2023/04/20 01:48:39;;;;;;;;;;;4.50;1.00;;;;;;5092848;28;19909;-75
2023/04/20 01:51:08;;;;;;;;;;;4.50;1.00;;;;;;5077046;28;19970;-75
2023/04/20 01:53:34;;;;;;;;;;;4.50;1.00;;;;;;5095389;28;20322;-75
2023/04/20 01:56:07;;;;;;;;;;;4.50;1.00;;;;;;5088870;28;20007;-75
2023/04/20 01:58:38;;;;;;;;;;;4.50;1.00;;;;;;5077000;28;19915;-75
2023/04/20 02:01:03;;;;;;;;;;;4.40;1.00;;;;;;5089486;28;19913;-75
2023/04/20 02:03:31;;;;;;;;;;;4.40;1.00;;;;;;5066698;28;19918;-75
2023/04/20 02:05:57;;;;;;;;;;;4.30;1.00;;;;;;5071774;28;19912;-75
2023/04/20 02:08:26;;;;;;;;;;;4.40;1.00;;;;;;5076439;28;19931;-75
2023/04/20 02:10:51;;;;;;;;;;;4.40;1.00;;;;;;5092345;28;19909;-75
2023/04/20 02:13:20;;;;;;;;;;;4.40;1.00;;;;;;5090458;28;19914;-74
2023/04/20 02:15:45;;;;;;;;;;;4.30;1.00;;;;;;5090575;28;19917;-75
2023/04/20 02:18:11;;;;;;;;;;;4.30;1.00;;;;;;5076456;28;19958;-75
2023/04/20 02:20:37;;;;;;;;;;;4.40;1.00;;;;;;5061019;28;20287;-74
2023/04/20 02:23:14;;;;;;;;;;;4.30;1.00;;;;;;5082433;28;19908;-74
2023/04/20 02:25:40;;;;;;;;;;;4.30;1.00;;;;;;5090954;28;19954;-74
2023/04/20 02:28:05;;;;;;;;;;;4.40;1.00;;;;;;5056724;28;19916;-78
2023/04/20 02:30:32;;;;;;;;;;;4.50;1.00;;;;;;5061775;28;20287;-78
2023/04/20 02:33:08;;;;;;;;;;;4.60;1.00;;;;;;5055706;28;20548;-77
2023/04/20 02:35:33;;;;;;;;;;;4.70;1.00;;;;;;5094576;28;19928;-79
2023/04/20 02:38:14;;;;;;;;;;;4.90;1.00;;;;;;5096308;28;19908;-78
2023/04/20 02:43:43;;;;;;;;;;;5.20;1.00;;;;;;5058753;28;20012;-78
2023/04/20 02:46:20;;;;;;;;;;;5.40;1.00;;;;;;5060785;28;19960;-78
2023/04/20 02:52:02;;;;;;;;;;;5.70;1.00;;;;;;5077278;28;19919;-78
2023/04/20 02:54:44;;;;;;;;;;;5.80;1.00;;;;;;5057195;28;19916;-78
2023/04/20 02:57:20;;;;;;;;;;;5.90;1.00;;;;;;5055901;28;20315;-78
2023/04/20 03:00:14;;;;;;;;;;;6.00;1.00;;;;;;5055380;28;19912;-78
2023/04/20 03:02:50;;;;;;;;;;;6.10;1.00;;;;;;5064804;28;19958;-78
2023/04/20 03:05:20;;;;;;;;;;;6.20;1.00;;;;;;5075376;28;19939;-78
2023/04/20 03:10:48;;;;;;;;;;;6.40;1.00;;;;;;5055334;28;20421;-78
2023/04/20 03:13:14;;;;;;;;;;;6.50;1.00;;;;;;5060906;28;19908;-78
2023/04/20 03:16:02;;;;;;;;;;;6.60;1.00;;;;;;5075278;28;19920;-78
2023/04/20 03:18:28;;;;;;;;;;;6.60;1.00;;;;;;5092957;28;19997;-78
2023/04/20 03:20:56;;;;;;;;;;;6.70;1.00;;;;;;5095749;28;20379;-78
2023/04/20 03:23:21;;;;;;;;;;;6.70;1.00;;;;;;5071092;28;19947;-78
2023/04/20 03:25:50;;;;;;;;;;;6.80;1.00;;;;;;5095403;28;19908;-78
2023/04/20 03:28:26;;;;;;;;;;;6.80;1.00;;;;;;5095420;28;19999;-78
2023/04/20 03:30:56;;;;;;;;;;;6.80;1.00;;;;;;5082753;28;19915;-78
2023/04/20 03:33:21;;;;;;;;;;;6.90;1.00;;;;;;5074260;28;19912;-78
2023/04/20 03:35:50;;;;;;;;;;;7.00;1.00;;;;;;5075366;28;19921;-78
2023/04/20 03:38:16;;;;;;;;;;;7.00;1.00;;;;;;5058201;28;19963;-78
2023/04/20 03:40:44;;;;;;;;;;;7.00;1.00;;;;;;5069814;28;19912;-78
2023/04/20 03:43:11;;;;;;;;;;;6.90;1.00;;;;;;5051223;28;19912;-74
2023/04/20 03:45:36;;;;;;;;;;;6.90;1.00;;;;;;5070215;28;20324;-74
2023/04/20 03:48:02;;;;;;;;;;;6.90;1.00;;;;;;5082105;28;20011;-74
2023/04/20 03:50:28;;;;;;;;;;;6.80;1.00;;;;;;5072970;28;19913;-75
2023/04/20 03:52:56;;;;;;;;;;;6.80;1.00;;;;;;5074230;28;19912;-74
2023/04/20 03:55:21;;;;;;;;;;;6.80;1.00;;;;;;5066187;28;19920;-85
2023/04/20 04:07:02;;;;;;;;;;;6.70;1.00;;;;;;5070464;28;19951;-95
2023/04/20 04:09:50;;;;;;;;;;;6.70;1.00;;;;;;5056008;28;19957;-93
2023/04/20 04:18:21;;;;;;;;;;;6.70;1.00;;;;;;5058271;28;19919;-93
2023/04/20 04:23:50;;;;;;;;;;;6.60;1.00;;;;;;5054924;28;20428;-92
2023/04/20 04:29:26;;;;;;;;;;;6.60;1.00;;;;;;5054965;28;19909;-91
2023/04/20 04:34:54;;;;;;;;;;;6.60;1.00;;;;;;5093812;28;19926;-92
2023/04/20 04:37:56;;;;;;;;;;;6.50;1.00;;;;;;5050756;28;20012;-92
2023/04/20 04:40:26;;;;;;;;;;;6.60;1.00;;;;;;5071561;28;19919;-92
2023/04/20 04:42:51;;;;;;;;;;;6.60;1.00;;;;;;5063275;28;19963;-91
2023/04/20 04:45:17;;;;;;;;;;;6.60;1.00;;;;;;5043959;28;19913;-91
2023/04/20 04:50:56;;;;;;;;;;;6.60;1.00;;;;;;5068061;28;20385;-90
2023/04/20 04:53:56;;;;;;;;;;;6.60;1.00;;;;;;5072239;28;19912;-90
2023/04/20 05:02:32;;;;;;;;;;;6.70;1.00;;;;;;5054678;28;19952;-92
2023/04/20 05:05:32;;;;;;;;;;;6.70;1.00;;;;;;5086297;28;19948;-91
2023/04/20 05:23:13;;;;;;;;;;;7.00;1.00;;;;;;5056399;28;19915;-89
2023/04/20 05:25:39;;;;;;;;;;;6.90;1.00;;;;;;5056466;28;20003;-91
2023/04/20 05:28:14;;;;;;;;;;;6.90;1.00;;;;;;5058556;28;19952;-90
2023/04/20 05:34:20;;;;;;;;;;;7.00;1.00;;;;;;5092127;28;19969;-91
2023/04/20 05:36:45;;;;;;;;;;;7.00;1.00;;;;;;5071485;28;19942;-89
2023/04/20 05:45:35;;;;;;;;;;;7.20;1.00;;;;;;5072510;28;20291;-88
2023/04/20 05:48:14;;;;;;;;;;;7.40;1.00;;;;;;5059549;28;19915;-86
2023/04/20 05:50:39;;;;;;;;;;;7.50;1.00;;;;;;5057434;28;20404;-87
2023/04/20 05:56:08;;;;;;;;;;;7.80;1.00;;;;;;5077401;28;19971;-88
2023/04/20 05:58:34;;;;;;;;;;;7.70;1.00;;;;;;5077810;28;19905;-87
2023/04/20 06:04:03;;;;;;;;;;;8.00;1.00;;;;;;5077282;28;19935;-87
2023/04/20 06:18:40;;;;;;;;;;;8.50;1.00;;;;;;5077015;28;19958;-87
2023/04/20 06:24:08;;;;;;;;;;;8.70;1.00;;;;;;5056773;28;19963;-87
2023/04/20 06:33:16;;;;;;;;;;;8.80;1.00;;;;;;5061071;28;19915;-90
2023/04/20 06:35:41;;;;;;;;;;;8.80;1.00;;;;;;5055583;28;19921;-91
2023/04/20 06:44:13;;;;;;;;;;;8.50;1.00;;;;;;5065398;28;19920;-89
2023/04/20 06:46:56;;;;;;;;;;;8.40;1.00;;;;;;5058782;28;19909;-89
2023/04/20 06:52:24;;;;;;;;;;;8.40;1.00;;;;;;5075677;28;19954;-91
2023/04/20 06:57:56;;;;;;;;;;;8.40;1.00;;;;;;5056161;28;19979;-91
2023/04/20 07:15:37;;;;;;;;;;;8.50;1.00;;;;;;5057110;28;19975;-88
2023/04/20 07:21:05;;;;;;;;;;;8.60;1.00;;;;;;5056539;28;20280;-89
2023/04/20 07:26:34;;;;;;;;;;;8.80;1.00;;;;;;5055759;28;20290;-92
2023/04/20 07:35:06;;;;;;;;;;;9.10;1.00;;;;;;5055342;28;19928;-88
2023/04/20 07:37:32;;;;;;;;;;;9.20;1.00;;;;;;5037923;28;19917;-88
2023/04/20 07:43:08;;;;;;;;;;;9.10;1.00;;;;;;5058841;28;19914;-88
2023/04/20 07:45:38;;;;;;;;;;;9.20;1.00;;;;;;5058111;28;19916;-88
2023/04/20 08:00:56;;;;;;;;;;;9.70;1.00;;;;;;5069492;28;20053;-91
2023/04/20 08:06:57;;;;;;;;;;;10.20;1.00;;;;;;5054822;28;19951;-91
2023/04/20 08:09:24;;;;;;;;;;;10.60;1.00;;;;;;5053885;28;19913;-91
2023/04/20 08:12:02;;;;;;;;;;;10.80;1.00;;;;;;5051970;28;19913;-91
2023/04/20 08:14:39;;;;;;;;;;;11.00;1.00;;;;;;5056404;28;19917;-88
2023/04/20 08:17:26;;;;;;;;;;;11.00;1.00;;;;;;5074984;28;19992;-90
2023/04/20 08:22:54;;;;;;;;;;;11.10;1.00;;;;;;5074913;28;19995;-96
2023/04/20 08:25:57;;;;;;;;;;;11.20;1.00;;;;;;5057419;28;19956;-95
2023/04/20 08:31:26;;;;;;;;;;;11.20;1.00;;;;;;5075319;28;19915;-91
2023/04/20 08:36:54;;;;;;;;;;;11.60;1.00;;;;;;5074734;28;20408;-89
2023/04/20 08:39:22;;;;;;;;;;;11.60;1.00;;;;;;5057241;28;20011;-89
2023/04/20 08:42:02;;;;;;;;;;;11.60;1.00;;;;;;5055079;28;19912;-90
2023/04/20 09:05:49;;;;;;;;;;;13.80;1.00;;;;;;5074418;28;20280;-90
2023/04/20 09:08:46;;;;;;;;;;;13.90;1.00;;;;;;5056746;28;19909;-90
2023/04/20 09:14:15;;;;;;;;;;;13.60;1.00;;;;;;4993207;28;20317;-90
2023/04/20 09:19:43;;;;;;;;;;;13.20;1.00;;;;;;4995603;28;20558;-90
2023/04/20 09:22:40;;;;;;;;;;;13.40;1.00;;;;;;4980814;28;19913;-90
2023/04/20 09:34:52;;;;;;;;;;;13.60;1.00;;;;;;4957898;29;19925;-91
2023/04/20 09:37:21;;;;;;;;;;;13.70;1.00;;;;;;4882253;29;19920;-91
2023/04/20 09:39:58;;;;;;;;;;;13.70;1.00;;;;;;4866828;29;19941;-91
2023/04/20 09:48:29;;;;;;;;;;;14.00;1.00;;;;;;4897062;29;20370;-89
2023/04/20 09:57:03;;;;;;;;;;;13.70;1.00;;;;;;4910749;29;19918;-75
2023/04/20 09:59:32;;;;;;;;;;;13.60;1.00;;;;;;4905282;29;19964;-75
2023/04/20 10:02:06;;;;;;;;;;;13.60;1.00;;;;;;4926600;29;19925;-75
2023/04/20 10:04:32;;;;;;;;;;;13.50;1.00;;;;;;4956504;29;19953;-75
2023/04/20 10:07:02;;;;;;;;;;;13.50;1.00;;;;;;4956760;29;20523;-75
2023/04/20 10:09:29;;;;;;;;;;;13.50;1.00;;;;;;4956620;29;19945;-75
2023/04/20 10:12:08;;;;;;;;;;;13.60;1.00;;;;;;5039054;28;20367;-75
2023/04/20 10:14:38;;;;;;;;;;;13.70;1.00;;;;;;5097067;28;19919;-75
2023/04/20 10:17:10;;;;;;;;;;;13.80;1.00;;;;;;5097467;28;20328;-75
2023/04/20 10:19:38;;;;;;;;;;;13.80;1.00;;;;;;5078546;28;20390;-75
2023/04/20 10:22:04;;;;;;;;;;;13.70;1.00;;;;;;5076670;28;20291;-75
2023/04/20 10:24:30;;;;;;;;;;;13.60;1.00;;;;;;5076534;28;20344;-75
2023/04/20 10:27:31;;;;;;;;;;;13.90;1.00;;;;;;5076582;28;19915;-78
2023/04/20 10:30:09;;;;;;;;;;;14.40;1.00;;;;;;5034178;28;20468;-76
2023/04/20 10:32:38;;;;;;;;;;;14.80;1.00;;;;;;5034662;28;19909;-78
2023/04/20 10:35:15;;;;;;;;;;;15.00;1.00;;;;;;5033450;28;19928;-78
2023/04/20 10:37:50;;;;;;;;;;;15.20;1.00;;;;;;5037775;28;20423;-78
2023/04/20 10:40:16;;;;;;;;;;;15.40;1.00;;;;;;5039106;28;20024;-78
2023/04/20 10:42:50;;;;;;;;;;;15.40;1.00;;;;;;5016418;28;19919;-77
2023/04/20 10:45:50;;;;;;;;;;;15.40;1.00;;;;;;5030204;28;20003;-78
2023/04/20 10:48:16;;;;;;;;;;;15.20;1.00;;;;;;5034378;28;19909;-75
2023/04/20 10:50:50;;;;;;;;;;;15.10;1.00;;;;;;5034061;28;20345;-76
2023/04/20 10:53:38;;;;;;;;;;;15.10;1.00;;;;;;5034016;28;19909;-76
2023/04/20 10:56:09;;;;;;;;;;;15.00;1.00;;;;;;5033888;28;19960;-76
2023/04/20 10:58:35;;;;;;;;;;;15.00;1.00;;;;;;5033811;28;19909;-76
2023/04/20 11:01:08;;;;;;;;;;;14.80;1.00;;;;;;5034005;28;20265;-76
2023/04/20 11:03:38;;;;;;;;;;;14.70;1.00;;;;;;5033976;28;19914;-77
2023/04/20 11:06:04;;;;;;;;;;;14.70;1.00;;;;;;5064627;28;19915;-76
2023/04/20 11:08:39;;;;;;;;;;;14.70;1.00;;;;;;5075399;28;19908;-76
2023/04/20 11:11:05;;;;;;;;;;;14.80;1.00;;;;;;5075802;28;19909;-76
2023/04/20 11:13:32;;;;;;;;;;;14.80;1.00;;;;;;5073320;28;19999;-76
2023/04/20 11:15:58;;;;;;;;;;;14.70;1.00;;;;;;5073205;28;20252;-75
2023/04/20 11:18:58;;;;;;;;;;;14.60;1.00;;;;;;5075512;28;20355;-77
2023/04/20 11:24:28;;;;;;;;;;;14.60;1.00;;;;;;5013182;28;19920;-78
2023/04/20 11:26:57;;;;;;;;;;;14.60;1.00;;;;;;5013341;28;19910;-78
2023/04/20 11:29:32;;;;;;;;;;;14.80;1.00;;;;;;5013187;28;19913;-77
2023/04/20 11:32:20;;;;;;;;;;;15.00;1.00;;;;;;4997154;28;19933;-77
2023/04/20 11:35:06;;;;;;;;;;;15.20;1.00;;;;;;5013559;28;20024;-78
2023/04/20 11:38:08;;;;;;;;;;;15.30;1.00;;;;;;5013154;28;19917;-78
2023/04/20 11:40:38;;;;;;;;;;;15.00;1.00;;;;;;5012770;28;19916;-77
2023/04/20 11:43:04;;;;;;;;;;;14.80;1.00;;;;;;5011819;28;19917;-78
2023/04/20 11:45:33;;;;;;;;;;;15.00;1.00;;;;;;5012345;28;20269;-78
2023/04/20 11:48:03;;;;;;;;;;;15.30;1.00;;;;;;5012494;28;20333;-81
2023/04/20 11:50:32;;;;;;;;;;;15.40;1.00;;;;;;5012925;28;19992;-78
2023/04/20 11:53:09;;;;;;;;;;;15.40;1.00;;;;;;5012335;28;19910;-77
2023/04/20 11:55:50;;;;;;;;;;;15.30;1.00;;;;;;5013107;28;19917;-78
2023/04/20 11:58:20;;;;;;;;;;;15.30;1.00;;;;;;5054918;28;19909;-81
2023/04/20 12:00:56;;;;;;;;;;;15.20;1.00;;;;;;5062719;28;19909;-78
2023/04/20 12:03:22;;;;;;;;;;;15.00;1.00;;;;;;5080560;28;19935;-76
2023/04/20 12:05:47;;;;;;;;;;;14.90;1.00;;;;;;5074693;28;19908;-75
2023/04/20 12:08:20;;;;;;;;;;;14.80;1.00;;;;;;5074678;28;19909;-76
2023/04/20 12:10:46;;;;;;;;;;;14.90;1.00;;;;;;5058549;28;20336;-75
2023/04/20 12:13:14;;;;;;;;;;;14.90;1.00;;;;;;5076687;28;19958;-75
2023/04/20 12:15:40;;;;;;;;;;;15.00;1.00;;;;;;5073661;28;19920;-75
2023/04/20 12:18:09;;;;;;;;;;;15.10;1.00;;;;;;5054912;28;19913;-75
2023/04/20 12:20:35;;;;;;;;;;;15.10;1.00;;;;;;5054594;28;19909;-75
2023/04/20 12:23:02;;;;;;;;;;;15.00;1.00;;;;;;5054405;28;19954;-75
2023/04/20 12:25:32;;;;;;;;;;;14.90;1.00;;;;;;5055011;28;19909;-76
2023/04/20 12:28:05;;;;;;;;;;;15.00;1.00;;;;;;5073257;28;19912;-76
2023/04/20 12:30:33;;;;;;;;;;;15.00;1.00;;;;;;5058216;28;19913;-75
2023/04/20 12:32:59;;;;;;;;;;;15.10;1.00;;;;;;5055769;28;19950;-75
2023/04/20 12:35:25;;;;;;;;;;;15.20;1.00;;;;;;5073256;28;20015;-75
2023/04/20 12:37:50;;;;;;;;;;;15.30;1.00;;;;;;5070911;28;20538;-76
2023/04/20 12:40:16;;;;;;;;;;;15.40;1.00;;;;;;5072881;28;19909;-75
2023/04/20 12:42:50;;;;;;;;;;;15.30;1.00;;;;;;5071715;28;19942;-76
2023/04/20 12:45:26;;;;;;;;;;;15.30;1.00;;;;;;5057350;28;19919;-76
2023/04/20 12:48:08;;;;;;;;;;;15.20;1.00;;;;;;5074492;28;19962;-77
2023/04/20 12:50:44;;;;;;;;;;;15.30;1.00;;;;;;5074604;28;19915;-77
2023/04/20 12:53:20;;;;;;;;;;;15.30;1.00;;;;;;5068794;28;20051;-79
2023/04/20 12:55:50;;;;;;;;;;;15.50;1.00;;;;;;5058442;28;19913;-78
2023/04/20 12:58:20;;;;;;;;;;;15.80;1.00;;;;;;5057635;28;19916;-77
2023/04/20 13:00:56;;;;;;;;;;;15.90;1.00;;;;;;5057831;28;19919;-77
2023/04/20 13:03:22;;;;;;;;;;;15.90;1.00;;;;;;5058354;28;20280;-75
2023/04/20 13:05:48;;;;;;;;;;;15.20;1.00;;;;;;5057852;28;19915;-75
2023/04/20 13:08:13;;;;;;;;;;;14.60;1.00;;;;;;5068886;28;20328;-75
2023/04/20 13:10:41;;;;;;;;;;;14.40;1.00;;;;;;5077666;28;19908;-75
2023/04/20 13:13:09;;;;;;;;;;;14.30;1.00;;;;;;5077751;28;19967;-75
2023/04/20 13:15:35;;;;;;;;;;;14.20;1.00;;;;;;5085661;28;19916;-74
2023/04/20 13:18:01;;;;;;;;;;;14.10;1.00;;;;;;5075362;28;19920;-74
2023/04/20 13:20:32;;;;;;;;;;;14.10;1.00;;;;;;5077259;28;19955;-74
2023/04/20 13:23:14;;;;;;;;;;;14.10;1.00;;;;;;5077401;28;19912;-74
2023/04/20 13:25:40;;;;;;;;;;;14.10;1.00;;;;;;5074895;28;19912;-75
2023/04/20 13:28:05;;;;;;;;;;;14.10;1.00;;;;;;5077535;28;19962;-76
2023/04/20 13:30:31;;;;;;;;;;;13.90;1.00;;;;;;5064247;28;19916;-74
2023/04/20 13:33:13;;;;;;;;;;;14.10;1.00;;;;;;5075595;28;19966;-76
2023/04/20 13:35:50;;;;;;;;;;;14.20;1.00;;;;;;5079315;28;19920;-75
2023/04/20 13:38:16;;;;;;;;;;;14.30;1.00;;;;;;5057184;28;19925;-75
2023/04/20 13:40:56;;;;;;;;;;;14.20;1.00;;;;;;5057129;28;20420;-76
2023/04/20 13:43:26;;;;;;;;;;;14.10;1.00;;;;;;5068158;28;20241;-77
2023/04/20 13:45:56;;;;;;;;;;;14.30;1.00;;;;;;5077148;28;19908;-76
2023/04/20 13:48:26;;;;;;;;;;;14.40;1.00;;;;;;5077647;28;19958;-76
2023/04/20 13:51:08;;;;;;;;;;;14.40;1.00;;;;;;5077775;28;19909;-78
2023/04/20 13:53:56;;;;;;;;;;;14.50;1.00;;;;;;5057454;28;19995;-77
2023/04/20 13:56:22;;;;;;;;;;;14.60;1.00;;;;;;5069877;28;20065;-76
2023/04/20 13:58:56;;;;;;;;;;;14.70;1.00;;;;;;5097077;28;20387;-76
2023/04/20 14:01:32;;;;;;;;;;;14.60;1.00;;;;;;5087970;28;20282;-76
2023/04/20 14:04:03;;;;;;;;;;;14.40;1.00;;;;;;5083067;28;19909;-75
2023/04/20 14:06:32;;;;;;;;;;;14.30;1.00;;;;;;5070698;28;20007;-75
2023/04/20 14:09:08;;;;;;;;;;;14.10;1.00;;;;;;5082787;28;19912;-75
2023/04/20 14:12:08;;;;;;;;;;;14.10;1.00;;;;;;5078539;28;20007;-77
2023/04/20 14:14:50;;;;;;;;;;;14.20;1.00;;;;;;5076738;28;20012;-77
2023/04/20 14:17:32;;;;;;;;;;;14.30;1.00;;;;;;5062967;28;19909;-78
2023/04/20 14:19:58;;;;;;;;;;;14.50;1.00;;;;;;5063291;28;19958;-76
2023/04/20 14:22:23;;;;;;;;;;;14.50;1.00;;;;;;5072901;28;19913;-76
2023/04/20 14:24:49;;;;;;;;;;;14.40;1.00;;;;;;5068692;28;19912;-75
2023/04/20 14:27:15;;;;;;;;;;;14.20;1.00;;;;;;5075419;28;19909;-75
2023/04/20 14:29:40;;;;;;;;;;;14.10;1.00;;;;;;5074738;28;19913;-75
2023/04/20 14:32:06;;;;;;;;;;;14.10;1.00;;;;;;5073605;28;20125;-75
2023/04/20 14:34:32;;;;;;;;;;;14.00;1.00;;;;;;5058347;28;19940;-75
2023/04/20 14:36:57;;;;;;;;;;;14.00;1.00;;;;;;5065243;28;20307;-76
2023/04/20 14:39:23;;;;;;;;;;;13.90;1.00;;;;;;5081132;28;19920;-75
2023/04/20 14:41:48;;;;;;;;;;;13.90;1.00;;;;;;5066511;28;19923;-75
2023/04/20 14:44:14;;;;;;;;;;;13.90;1.00;;;;;;5056040;28;19916;-75
2023/04/20 14:46:40;;;;;;;;;;;13.90;1.00;;;;;;5066055;28;19913;-75
2023/04/20 14:49:06;;;;;;;;;;;14.00;1.00;;;;;;5076535;28;19909;-75
2023/04/20 14:51:31;;;;;;;;;;;14.00;1.00;;;;;;5075343;28;19965;-75
2023/04/20 14:53:57;;;;;;;;;;;14.10;1.00;;;;;;5075933;28;19974;-75
2023/04/20 14:56:23;;;;;;;;;;;14.10;1.00;;;;;;5075498;28;19920;-75
2023/04/20 14:58:49;;;;;;;;;;;14.00;1.00;;;;;;5075640;28;19960;-75
2023/04/20 15:01:14;;;;;;;;;;;13.90;1.00;;;;;;5076495;28;19939;-75
2023/04/20 15:04:14;;;;;;;;;;;13.70;1.00;;;;;;5078730;28;20316;-77
2023/04/20 15:09:45;;;;;;;;;;;13.60;1.00;;;;;;5073500;28;19919;-77
2023/04/20 15:12:10;;;;;;;;;;;13.50;1.00;;;;;;5078140;28;19908;-77
2023/04/20 15:15:02;;;;;;;;;;;13.40;1.00;;;;;;5093889;28;20249;-77
2023/04/20 15:17:28;;;;;;;;;;;13.20;1.00;;;;;;5095338;28;19931;-75
2023/04/20 15:19:54;;;;;;;;;;;13.00;1.00;;;;;;5078017;28;20351;-75
2023/04/20 15:22:19;;;;;;;;;;;12.80;1.00;;;;;;5074694;28;19908;-74
2023/04/20 15:24:45;;;;;;;;;;;12.70;1.00;;;;;;5073616;28;19912;-74
2023/04/20 15:27:11;;;;;;;;;;;12.60;1.00;;;;;;5075233;28;19913;-74
2023/04/20 15:29:38;;;;;;;;;;;12.50;1.00;;;;;;5074941;28;19938;-75
2023/04/20 15:32:08;;;;;;;;;;;12.50;1.00;;;;;;5068643;28;19912;-76
2023/04/20 15:34:34;;;;;;;;;;;12.50;1.00;;;;;;5061583;28;20007;-76
2023/04/20 15:36:59;;;;;;;;;;;12.40;1.00;;;;;;5081899;28;19948;-75
2023/04/20 15:39:25;;;;;;;;;;;12.30;1.00;;;;;;5095973;28;19936;-76
2023/04/20 15:41:51;;;;;;;;;;;12.30;1.00;;;;;;5095604;28;19908;-75
2023/04/20 15:44:32;;;;;;;;;;;12.30;1.00;;;;;;5081485;28;19913;-75
2023/04/20 15:47:08;;;;;;;;;;;12.30;1.00;;;;;;5071469;28;19908;-75
2023/04/20 15:49:39;;;;;;;;;;;12.30;1.00;;;;;;5075191;28;19916;-73
2023/04/20 15:52:08;;;;;;;;;;;12.30;1.00;;;;;;5074523;28;19912;-73
2023/04/20 15:54:38;;;;;;;;;;;12.20;1.00;;;;;;5071854;28;20007;-73
2023/04/20 15:57:04;;;;;;;;;;;12.20;1.00;;;;;;5074541;28;19947;-75
2023/04/20 15:59:30;;;;;;;;;;;12.20;1.00;;;;;;5074412;28;19908;-73
2023/04/20 16:01:56;;;;;;;;;;;12.10;1.00;;;;;;5071002;28;19938;-73
2023/04/20 16:04:26;;;;;;;;;;;12.10;1.00;;;;;;5072754;28;19961;-75
2023/04/20 16:07:02;;;;;;;;;;;12.10;1.00;;;;;;5090628;28;19908;-78
2023/04/20 16:09:32;;;;;;;;;;;12.00;1.00;;;;;;5086780;28;20007;-78
2023/04/20 16:11:58;;;;;;;;;;;12.00;1.00;;;;;;5074439;28;19938;-78
2023/04/20 16:14:27;;;;;;;;;;;12.00;1.00;;;;;;5065234;28;19916;-78
2023/04/20 16:16:52;;;;;;;;;;;12.00;1.00;;;;;;5075310;28;20015;-76
2023/04/20 16:19:26;;;;;;;;;;;12.00;1.00;;;;;;5074894;28;20003;-74
2023/04/20 16:21:52;;;;;;;;;;;12.00;1.00;;;;;;5072765;28;19995;-73
2023/04/20 16:24:18;;;;;;;;;;;12.00;1.00;;;;;;5071880;28;20362;-73
2023/04/20 16:33:14;;;;;;;;;;;11.80;1.00;;;;;;5075324;28;20432;-91
2023/04/20 16:36:02;;;;;;;;;;;11.70;1.00;;;;;;5074370;28;19966;-92
2023/04/20 16:44:36;;;;;;;;;;;11.50;1.00;;;;;;5054270;28;19931;-87
2023/04/20 16:47:32;;;;;;;;;;;11.40;1.00;;;;;;5065860;28;20360;-85
2023/04/20 16:53:26;;;;;;;;;;;11.40;1.00;;;;;;5055048;28;19991;-84
2023/04/20 16:56:02;;;;;;;;;;;11.40;1.00;;;;;;5080667;28;19920;-87
2023/04/20 17:04:56;;;;;;;;;;;11.00;1.00;;;;;;5094250;28;19915;-88
2023/04/20 17:10:33;;;;;;;;;;;10.80;1.00;;;;;;5053919;28;19959;-86
2023/04/20 17:12:58;;;;;;;;;;;10.70;1.00;;;;;;5053025;28;20291;-85
2023/04/20 17:15:32;;;;;;;;;;;10.60;1.00;;;;;;5072933;28;19942;-86
2023/04/20 17:18:33;;;;;;;;;;;10.60;1.00;;;;;;5074373;28;19920;-86
2023/04/20 17:24:32;;;;;;;;;;;10.60;1.00;;;;;;5081051;28;20011;-87
2023/04/20 17:27:02;;;;;;;;;;;10.50;1.00;;;;;;5093011;28;20363;-88
2023/04/20 17:33:02;;;;;;;;;;;10.40;1.00;;;;;;5074418;28;19923;-87
2023/04/20 17:35:28;;;;;;;;;;;10.30;1.00;;;;;;5066379;28;20023;-83
2023/04/20 17:38:02;;;;;;;;;;;10.20;1.00;;;;;;5074322;28;19971;-82
2023/04/20 17:40:38;;;;;;;;;;;10.20;1.00;;;;;;5077222;28;20547;-82
2023/04/20 17:43:14;;;;;;;;;;;10.20;1.00;;;;;;5077445;28;19909;-81
2023/04/20 17:45:47;;;;;;;;;;;10.20;1.00;;;;;;5097133;28;20378;-82
2023/04/20 17:48:20;;;;;;;;;;;10.10;1.00;;;;;;5097439;28;19908;-83
2023/04/20 17:50:50;;;;;;;;;;;10.10;1.00;;;;;;5097391;28;19912;-82
2023/04/20 17:56:44;;;;;;;;;;;10.00;1.00;;;;;;5097354;28;19970;-86
2023/04/20 17:59:11;;;;;;;;;;;10.00;1.00;;;;;;5075796;28;19912;-83
2023/04/20 18:02:02;;;;;;;;;;;9.90;1.00;;;;;;5063321;28;20360;-84
2023/04/20 18:04:32;;;;;;;;;;;9.90;1.00;;;;;;5060017;28;19916;-87
2023/04/20 18:06:58;;;;;;;;;;;9.90;1.00;;;;;;5066080;28;19917;-81
2023/04/20 18:09:23;;;;;;;;;;;9.90;1.00;;;;;;5056745;28;19916;-82
2023/04/20 18:11:56;;;;;;;;;;;9.90;1.00;;;;;;5072081;28;20280;-82
2023/04/20 18:14:32;;;;;;;;;;;9.90;1.00;;;;;;5065131;28;19934;-82
2023/04/20 18:17:02;;;;;;;;;;;9.80;1.00;;;;;;5068975;28;19916;-83
2023/04/20 18:20:04;;;;;;;;;;;9.80;1.00;;;;;;5066739;28;19956;-84
2023/04/20 18:22:33;;;;;;;;;;;9.80;1.00;;;;;;5071610;28;19908;-85
2023/04/20 18:25:15;;;;;;;;;;;9.70;1.00;;;;;;5073897;28;19927;-84
2023/04/20 18:27:41;;;;;;;;;;;9.70;1.00;;;;;;5068475;28;20386;-83
2023/04/20 18:30:32;;;;;;;;;;;9.70;1.00;;;;;;5056900;28;19999;-85
2023/04/20 18:33:26;;;;;;;;;;;9.60;1.00;;;;;;5055249;28;19920;-85
2023/04/20 18:36:04;;;;;;;;;;;9.70;1.00;;;;;;5062084;28;19912;-84
2023/04/20 18:38:30;;;;;;;;;;;9.70;1.00;;;;;;5063280;28;20348;-84
2023/04/20 18:41:32;;;;;;;;;;;9.70;1.00;;;;;;5059883;28;19916;-84
2023/04/20 18:44:02;;;;;;;;;;;9.70;1.00;;;;;;5068719;28;19913;-83
2023/04/20 18:46:33;;;;;;;;;;;9.60;1.00;;;;;;5074083;28;20007;-82
2023/04/20 18:49:02;;;;;;;;;;;9.60;1.00;;;;;;5063444;28;20327;-82
2023/04/20 18:52:02;;;;;;;;;;;9.60;1.00;;;;;;5056241;28;20007;-84
2023/04/20 18:54:34;;;;;;;;;;;9.60;1.00;;;;;;5060222;28;19955;-84
2023/04/20 18:57:27;;;;;;;;;;;9.50;1.00;;;;;;5076158;28;20416;-84
2023/04/20 19:00:07;;;;;;;;;;;9.40;1.00;;;;;;5056236;28;19913;-84
2023/04/20 19:02:33;;;;;;;;;;;9.40;1.00;;;;;;5075208;28;20042;-83
2023/04/20 19:04:59;;;;;;;;;;;9.30;1.00;;;;;;5073410;28;19913;-83
2023/04/20 19:07:32;;;;;;;;;;;9.30;1.00;;;;;;5083491;28;19920;-85
2023/04/20 19:09:59;;;;;;;;;;;9.30;1.00;;;;;;5074858;28;19912;-85
2023/04/20 19:15:33;;;;;;;;;;;9.30;1.00;;;;;;5065618;28;19962;-85
2023/04/20 19:18:15;;;;;;;;;;;9.20;1.00;;;;;;5074660;28;20036;-92
2023/04/20 19:20:40;;;;;;;;;;;9.20;1.00;;;;;;5075607;28;20328;-75